Decoded Metar for KTXK (TEXARKANA in AR, USA) (IATA:TXK) | Meteo·Mobile Aviation Weather
aviador You're here:

KTXK Decoded Metar

TEXARKANA in AR, USA
Report Time2018-12-11 01:53:00
UTC Time2018-12-11 02:07:51
Flight Rules vfr VFR
WindCalm
Visibility9999 m
Phenomena:N/A
Clouds:N/A
Expected CloudBase > 2,400 ft AGL from Temp-Dew spread
CeilingNone
Temp03°C (ISA -11)
Dew Point-3°C (65% RH)
AAT0.6°C
QNH1028 hPa
Density Alt-1,444 ft
Elevation364 ft
Report Wrong Elevation
Raw Report
KTXK 110153Z 00000KT 10SM CLR 03/M03 A3037 RMK AO2 SLP285
T00331033=

Extra information for KTXK:More info

Metar Taf Metar & Taf Last 4 Metars F.Rules Stats Wind Profile Meteogram Temp Stats Airport Information Weather charts Add Link Nearby VenuesMetar ALERT Operation Metar Decoded Social comments

AIRNAV info for KTXK